sensor_id;sensor_type;location;lat;lon;timestamp;temperature;humidity
70244;DHT22;57634;51.136;17.024;2022-08-21T00:02:22;22.20;79.50
70244;DHT22;57634;51.136;17.024;2022-08-21T00:05:24;22.20;79.10
70244;DHT22;57634;51.136;17.024;2022-08-21T00:08:52;22.30;79.00
70244;DHT22;57634;51.136;17.024;2022-08-21T00:11:53;22.40;78.60
70244;DHT22;57634;51.136;17.024;2022-08-21T00:14:55;22.40;78.30
70244;DHT22;57634;51.136;17.024;2022-08-21T00:17:57;22.40;78.20
70244;DHT22;57634;51.136;17.024;2022-08-21T00:21:00;22.50;77.80
70244;DHT22;57634;51.136;17.024;2022-08-21T00:24:02;22.70;77.10
70244;DHT22;57634;51.136;17.024;2022-08-21T00:27:04;22.90;76.40
70244;DHT22;57634;51.136;17.024;2022-08-21T00:30:07;22.90;75.90
70244;DHT22;57634;51.136;17.024;2022-08-21T00:33:09;22.90;75.70
70244;DHT22;57634;51.136;17.024;2022-08-21T00:36:11;22.90;75.50
70244;DHT22;57634;51.136;17.024;2022-08-21T00:39:14;22.90;75.50
70244;DHT22;57634;51.136;17.024;2022-08-21T00:42:16;22.90;75.30
70244;DHT22;57634;51.136;17.024;2022-08-21T00:45:46;22.80;75.40
70244;DHT22;57634;51.136;17.024;2022-08-21T00:48:47;22.80;75.60
70244;DHT22;57634;51.136;17.024;2022-08-21T00:51:53;22.80;75.70
70244;DHT22;57634;51.136;17.024;2022-08-21T00:54:57;22.70;75.60
70244;DHT22;57634;51.136;17.024;2022-08-21T00:58:01;22.70;75.60
70244;DHT22;57634;51.136;17.024;2022-08-21T01:01:05;22.70;75.70
70244;DHT22;57634;51.136;17.024;2022-08-21T01:04:07;22.70;75.60
70244;DHT22;57634;51.136;17.024;2022-08-21T01:07:08;22.70;75.40
70244;DHT22;57634;51.136;17.024;2022-08-21T01:10:10;22.60;75.30
70244;DHT22;57634;51.136;17.024;2022-08-21T01:13:15;22.50;75.40
70244;DHT22;57634;51.136;17.024;2022-08-21T01:16:52;22.40;75.60
70244;DHT22;57634;51.136;17.024;2022-08-21T01:19:57;22.30;76.00
70244;DHT22;57634;51.136;17.024;2022-08-21T01:23:01;22.20;76.00
70244;DHT22;57634;51.136;17.024;2022-08-21T01:26:04;22.00;76.60
70244;DHT22;57634;51.136;17.024;2022-08-21T01:29:16;21.90;77.10
70244;DHT22;57634;51.136;17.024;2022-08-21T01:32:18;21.80;77.40
70244;DHT22;57634;51.136;17.024;2022-08-21T01:35:21;21.70;77.60
70244;DHT22;57634;51.136;17.024;2022-08-21T01:38:22;21.60;77.60
70244;DHT22;57634;51.136;17.024;2022-08-21T01:41:50;21.50;77.90
70244;DHT22;57634;51.136;17.024;2022-08-21T01:44:52;21.40;78.20
70244;DHT22;57634;51.136;17.024;2022-08-21T01:47:53;21.30;78.50
70244;DHT22;57634;51.136;17.024;2022-08-21T01:50:54;21.20;78.80
70244;DHT22;57634;51.136;17.024;2022-08-21T01:53:55;21.10;79.10
70244;DHT22;57634;51.136;17.024;2022-08-21T01:56:58;21.00;79.10
70244;DHT22;57634;51.136;17.024;2022-08-21T02:00:01;20.90;79.50
70244;DHT22;57634;51.136;17.024;2022-08-21T02:03:03;20.80;79.80
70244;DHT22;57634;51.136;17.024;2022-08-21T02:06:06;20.80;80.00
70244;DHT22;57634;51.136;17.024;2022-08-21T02:09:10;20.70;80.10
70244;DHT22;57634;51.136;17.024;2022-08-21T02:12:12;20.70;80.30
70244;DHT22;57634;51.136;17.024;2022-08-21T02:15:13;20.70;80.30
70244;DHT22;57634;51.136;17.024;2022-08-21T02:18:44;20.70;80.30
70244;DHT22;57634;51.136;17.024;2022-08-21T02:21:45;20.70;80.40
70244;DHT22;57634;51.136;17.024;2022-08-21T02:24:46;20.70;80.50
70244;DHT22;57634;51.136;17.024;2022-08-21T02:27:48;20.60;80.60
70244;DHT22;57634;51.136;17.024;2022-08-21T02:30:50;20.60;80.60
70244;DHT22;57634;51.136;17.024;2022-08-21T02:33:52;20.60;80.70
70244;DHT22;57634;51.136;17.024;2022-08-21T02:36:54;20.50;80.70
70244;DHT22;57634;51.136;17.024;2022-08-21T02:39:55;20.40;81.00
70244;DHT22;57634;51.136;17.024;2022-08-21T02:43:00;20.40;81.10
70244;DHT22;57634;51.136;17.024;2022-08-21T02:46:04;20.30;81.40
70244;DHT22;57634;51.136;17.024;2022-08-21T02:49:06;20.30;81.60
70244;DHT22;57634;51.136;17.024;2022-08-21T02:52:07;20.30;81.70
70244;DHT22;57634;51.136;17.024;2022-08-21T02:55:08;20.30;81.70
70244;DHT22;57634;51.136;17.024;2022-08-21T02:58:40;20.30;81.50
70244;DHT22;57634;51.136;17.024;2022-08-21T03:01:42;20.40;81.80
70244;DHT22;57634;51.136;17.024;2022-08-21T03:04:44;20.40;81.60
70244;DHT22;57634;51.136;17.024;2022-08-21T03:07:48;20.40;81.40
70244;DHT22;57634;51.136;17.024;2022-08-21T03:10:51;20.40;81.40
70244;DHT22;57634;51.136;17.024;2022-08-21T03:13:53;20.50;81.20
70244;DHT22;57634;51.136;17.024;2022-08-21T03:16:55;20.50;81.20
70244;DHT22;57634;51.136;17.024;2022-08-21T03:19:56;20.50;81.10
70244;DHT22;57634;51.136;17.024;2022-08-21T03:22:59;20.40;81.10
70244;DHT22;57634;51.136;17.024;2022-08-21T03:26:00;20.50;81.20
70244;DHT22;57634;51.136;17.024;2022-08-21T03:29:02;20.40;81.10
70244;DHT22;57634;51.136;17.024;2022-08-21T03:32:03;20.30;81.20
70244;DHT22;57634;51.136;17.024;2022-08-21T03:35:31;20.30;81.40
70244;DHT22;57634;51.136;17.024;2022-08-21T03:38:34;20.30;81.50
70244;DHT22;57634;51.136;17.024;2022-08-21T03:41:36;20.30;81.60
70244;DHT22;57634;51.136;17.024;2022-08-21T03:44:37;20.30;81.70
70244;DHT22;57634;51.136;17.024;2022-08-21T03:50:53;20.40;81.50
70244;DHT22;57634;51.136;17.024;2022-08-21T03:53:54;20.50;81.30
70244;DHT22;57634;51.136;17.024;2022-08-21T03:56:55;20.50;81.20
70244;DHT22;57634;51.136;17.024;2022-08-21T03:59:57;20.50;81.10
70244;DHT22;57634;51.136;17.024;2022-08-21T04:02:59;20.50;81.00
70244;DHT22;57634;51.136;17.024;2022-08-21T04:06:01;20.60;81.00
70244;DHT22;57634;51.136;17.024;2022-08-21T04:09:30;20.60;80.80
70244;DHT22;57634;51.136;17.024;2022-08-21T04:12:32;20.60;80.80
70244;DHT22;57634;51.136;17.024;2022-08-21T04:15:34;20.60;80.70
70244;DHT22;57634;51.136;17.024;2022-08-21T04:18:36;20.60;80.70
70244;DHT22;57634;51.136;17.024;2022-08-21T04:21:38;20.60;80.60
70244;DHT22;57634;51.136;17.024;2022-08-21T04:24:39;20.60;80.50
70244;DHT22;57634;51.136;17.024;2022-08-21T04:27:41;20.60;80.50
70244;DHT22;57634;51.136;17.024;2022-08-21T04:30:43;20.60;80.50
70244;DHT22;57634;51.136;17.024;2022-08-21T04:33:44;20.60;80.40
70244;DHT22;57634;51.136;17.024;2022-08-21T04:36:46;20.60;80.40
70244;DHT22;57634;51.136;17.024;2022-08-21T04:39:47;20.50;80.40
70244;DHT22;57634;51.136;17.024;2022-08-21T04:43:01;20.50;80.50
70244;DHT22;57634;51.136;17.024;2022-08-21T04:46:26;20.50;80.60
70244;DHT22;57634;51.136;17.024;2022-08-21T04:49:27;20.50;80.60
70244;DHT22;57634;51.136;17.024;2022-08-21T04:52:28;20.60;80.70
70244;DHT22;57634;51.136;17.024;2022-08-21T04:55:30;20.60;80.70
70244;DHT22;57634;51.136;17.024;2022-08-21T04:58:31;20.60;80.60
70244;DHT22;57634;51.136;17.024;2022-08-21T05:01:36;20.70;80.70
70244;DHT22;57634;51.136;17.024;2022-08-21T05:04:43;20.70;80.60
70244;DHT22;57634;51.136;17.024;2022-08-21T05:07:46;20.70;80.50
70244;DHT22;57634;51.136;17.024;2022-08-21T05:10:48;20.70;80.50
70244;DHT22;57634;51.136;17.024;2022-08-21T05:13:50;20.60;80.50
70244;DHT22;57634;51.136;17.024;2022-08-21T05:16:51;20.60;80.50
70244;DHT22;57634;51.136;17.024;2022-08-21T05:19:53;20.60;80.60
70244;DHT22;57634;51.136;17.024;2022-08-21T05:23:21;20.50;80.50
70244;DHT22;57634;51.136;17.024;2022-08-21T05:26:22;20.50;80.60
70244;DHT22;57634;51.136;17.024;2022-08-21T05:29:24;20.50;80.60
70244;DHT22;57634;51.136;17.024;2022-08-21T05:32:25;20.50;80.60
70244;DHT22;57634;51.136;17.024;2022-08-21T05:35:29;20.40;80.50
70244;DHT22;57634;51.136;17.024;2022-08-21T05:38:31;20.40;80.40
70244;DHT22;57634;51.136;17.024;2022-08-21T05:41:32;20.40;80.30
70244;DHT22;57634;51.136;17.024;2022-08-21T05:44:34;20.40;80.40
70244;DHT22;57634;51.136;17.024;2022-08-21T05:47:36;20.40;80.30
70244;DHT22;57634;51.136;17.024;2022-08-21T05:50:37;20.40;80.30
70244;DHT22;57634;51.136;17.024;2022-08-21T05:53:39;20.40;80.20
70244;DHT22;57634;51.136;17.024;2022-08-21T05:56:42;20.40;80.10
70244;DHT22;57634;51.136;17.024;2022-08-21T05:59:45;20.40;80.20
70244;DHT22;57634;51.136;17.024;2022-08-21T06:03:18;20.40;80.20
70244;DHT22;57634;51.136;17.024;2022-08-21T06:06:20;20.40;80.40
70244;DHT22;57634;51.136;17.024;2022-08-21T06:09:21;20.30;80.20
70244;DHT22;57634;51.136;17.024;2022-08-21T06:12:23;20.30;80.20
70244;DHT22;57634;51.136;17.024;2022-08-21T06:15:26;20.30;80.30
70244;DHT22;57634;51.136;17.024;2022-08-21T06:18:28;20.30;80.30
70244;DHT22;57634;51.136;17.024;2022-08-21T06:21:29;20.30;80.20
70244;DHT22;57634;51.136;17.024;2022-08-21T06:24:30;20.20;80.20
70244;DHT22;57634;51.136;17.024;2022-08-21T06:27:32;20.20;80.40
70244;DHT22;57634;51.136;17.024;2022-08-21T06:30:33;20.20;80.50
70244;DHT22;57634;51.136;17.024;2022-08-21T06:33:35;20.10;80.50
70244;DHT22;57634;51.136;17.024;2022-08-21T06:36:36;20.10;80.50
70244;DHT22;57634;51.136;17.024;2022-08-21T06:40:06;20.10;80.60
70244;DHT22;57634;51.136;17.024;2022-08-21T06:43:11;20.10;80.70
70244;DHT22;57634;51.136;17.024;2022-08-21T06:46:13;20.10;80.60
70244;DHT22;57634;51.136;17.024;2022-08-21T06:49:14;20.00;80.50
70244;DHT22;57634;51.136;17.024;2022-08-21T06:52:16;19.90;80.40
70244;DHT22;57634;51.136;17.024;2022-08-21T06:55:18;19.80;80.30
70244;DHT22;57634;51.136;17.024;2022-08-21T06:58:19;19.70;80.40
70244;DHT22;57634;51.136;17.024;2022-08-21T07:01:24;19.60;80.40
70244;DHT22;57634;51.136;17.024;2022-08-21T07:04:26;19.60;80.30
70244;DHT22;57634;51.136;17.024;2022-08-21T07:07:27;19.50;80.50
70244;DHT22;57634;51.136;17.024;2022-08-21T07:10:28;19.40;80.40
70244;DHT22;57634;51.136;17.024;2022-08-21T07:13:30;19.30;80.50
70244;DHT22;57634;51.136;17.024;2022-08-21T07:16:59;19.10;80.40
70244;DHT22;57634;51.136;17.024;2022-08-21T07:20:02;18.90;80.50
70244;DHT22;57634;51.136;17.024;2022-08-21T07:23:08;18.80;80.70
70244;DHT22;57634;51.136;17.024;2022-08-21T07:26:11;18.70;80.80
70244;DHT22;57634;51.136;17.024;2022-08-21T07:29:12;18.70;80.80
70244;DHT22;57634;51.136;17.024;2022-08-21T07:32:14;18.60;80.80
70244;DHT22;57634;51.136;17.024;2022-08-21T07:35:17;18.60;81.20
70244;DHT22;57634;51.136;17.024;2022-08-21T07:38:20;18.40;81.40
70244;DHT22;57634;51.136;17.024;2022-08-21T07:41:27;18.40;81.70
70244;DHT22;57634;51.136;17.024;2022-08-21T07:44:31;18.40;81.80
70244;DHT22;57634;51.136;17.024;2022-08-21T07:48:01;18.30;81.90
70244;DHT22;57634;51.136;17.024;2022-08-21T07:51:06;18.20;82.30
70244;DHT22;57634;51.136;17.024;2022-08-21T07:54:08;18.20;82.70
70244;DHT22;57634;51.136;17.024;2022-08-21T07:57:09;18.20;83.00
70244;DHT22;57634;51.136;17.024;2022-08-21T08:00:16;18.10;83.10
70244;DHT22;57634;51.136;17.024;2022-08-21T08:03:20;18.20;82.90
70244;DHT22;57634;51.136;17.024;2022-08-21T08:06:22;18.20;82.60
70244;DHT22;57634;51.136;17.024;2022-08-21T08:09:25;18.20;82.60
70244;DHT22;57634;51.136;17.024;2022-08-21T08:12:26;18.30;82.40
70244;DHT22;57634;51.136;17.024;2022-08-21T08:15:31;18.30;82.20
70244;DHT22;57634;51.136;17.024;2022-08-21T08:18:32;18.30;82.10
70244;DHT22;57634;51.136;17.024;2022-08-21T08:22:00;18.40;81.90
70244;DHT22;57634;51.136;17.024;2022-08-21T08:25:01;18.40;81.80
70244;DHT22;57634;51.136;17.024;2022-08-21T08:28:04;18.40;81.60
70244;DHT22;57634;51.136;17.024;2022-08-21T08:31:05;18.50;81.70
70244;DHT22;57634;51.136;17.024;2022-08-21T08:34:07;18.50;81.50
70244;DHT22;57634;51.136;17.024;2022-08-21T08:37:09;18.50;81.40
70244;DHT22;57634;51.136;17.024;2022-08-21T08:40:22;18.50;81.30
70244;DHT22;57634;51.136;17.024;2022-08-21T08:43:28;18.50;81.30
70244;DHT22;57634;51.136;17.024;2022-08-21T08:46:36;18.50;81.10
70244;DHT22;57634;51.136;17.024;2022-08-21T08:53:32;18.40;81.50
70244;DHT22;57634;51.136;17.024;2022-08-21T08:56:31;18.40;81.30
70244;DHT22;57634;51.136;17.024;2022-08-21T08:59:42;18.40;81.40
70244;DHT22;57634;51.136;17.024;2022-08-21T09:02:46;18.50;81.50
70244;DHT22;57634;51.136;17.024;2022-08-21T09:06:00;18.50;81.20
70244;DHT22;57634;51.136;17.024;2022-08-21T09:16:09;18.70;80.70
70244;DHT22;57634;51.136;17.024;2022-08-21T09:19:23;18.80;80.50
70244;DHT22;57634;51.136;17.024;2022-08-21T09:26:14;19.10;80.50
70244;DHT22;57634;51.136;17.024;2022-08-21T09:29:17;19.20;80.00
70244;DHT22;57634;51.136;17.024;2022-08-21T09:32:32;19.40;79.50
70244;DHT22;57634;51.136;17.024;2022-08-21T09:35:29;19.40;78.60
70244;DHT22;57634;51.136;17.024;2022-08-21T09:38:36;19.30;78.00
70244;DHT22;57634;51.136;17.024;2022-08-21T09:42:09;19.20;77.50
70244;DHT22;57634;51.136;17.024;2022-08-21T09:45:17;19.00;76.90
70244;DHT22;57634;51.136;17.024;2022-08-21T09:48:24;18.80;77.10
70244;DHT22;57634;51.136;17.024;2022-08-21T09:54:39;18.50;77.10
70244;DHT22;57634;51.136;17.024;2022-08-21T09:57:44;18.40;77.10
70244;DHT22;57634;51.136;17.024;2022-08-21T10:01:21;18.30;77.30
70244;DHT22;57634;51.136;17.024;2022-08-21T10:04:30;18.20;78.00
70244;DHT22;57634;51.136;17.024;2022-08-21T10:07:35;18.30;78.00
70244;DHT22;57634;51.136;17.024;2022-08-21T10:10:37;18.40;78.00
70244;DHT22;57634;51.136;17.024;2022-08-21T10:13:50;18.40;77.80
70244;DHT22;57634;51.136;17.024;2022-08-21T10:17:04;18.50;77.50
70244;DHT22;57634;51.136;17.024;2022-08-21T10:47:27;18.50;77.90
70244;DHT22;57634;51.136;17.024;2022-08-21T10:56:59;18.80;77.20
70244;DHT22;57634;51.136;17.024;2022-08-21T11:00:39;18.90;77.20
70244;DHT22;57634;51.136;17.024;2022-08-21T11:04:03;18.90;77.20
70244;DHT22;57634;51.136;17.024;2022-08-21T11:07:00;19.10;77.00
70244;DHT22;57634;51.136;17.024;2022-08-21T11:10:27;19.10;76.30
70244;DHT22;57634;51.136;17.024;2022-08-21T11:17:07;19.10;75.80
70244;DHT22;57634;51.136;17.024;2022-08-21T11:26:42;19.00;75.30
70244;DHT22;57634;51.136;17.024;2022-08-21T11:29:56;18.90;75.60
70244;DHT22;57634;51.136;17.024;2022-08-21T11:33:47;18.90;75.50
70244;DHT22;57634;51.136;17.024;2022-08-21T11:36:38;18.90;75.30
70244;DHT22;57634;51.136;17.024;2022-08-21T11:50:02;18.90;74.30
70244;DHT22;57634;51.136;17.024;2022-08-21T11:53:18;18.90;74.10
70244;DHT22;57634;51.136;17.024;2022-08-21T11:56:19;18.90;73.90
70244;DHT22;57634;51.136;17.024;2022-08-21T12:03:23;19.00;74.00
70244;DHT22;57634;51.136;17.024;2022-08-21T12:09:32;19.00;73.50
70244;DHT22;57634;51.136;17.024;2022-08-21T12:12:39;19.00;73.80
70244;DHT22;57634;51.136;17.024;2022-08-21T12:15:41;19.00;73.50
70244;DHT22;57634;51.136;17.024;2022-08-21T12:18:43;19.10;73.50
70244;DHT22;57634;51.136;17.024;2022-08-21T12:28:40;19.20;73.50
70244;DHT22;57634;51.136;17.024;2022-08-21T12:35:11;19.20;73.30
70244;DHT22;57634;51.136;17.024;2022-08-21T12:38:20;19.30;73.40
70244;DHT22;57634;51.136;17.024;2022-08-21T12:42:00;19.40;73.10
70244;DHT22;57634;51.136;17.024;2022-08-21T12:45:05;19.50;72.90
70244;DHT22;57634;51.136;17.024;2022-08-21T12:51:33;19.60;72.30
70244;DHT22;57634;51.136;17.024;2022-08-21T12:55:07;19.50;72.30
70244;DHT22;57634;51.136;17.024;2022-08-21T12:58:18;19.50;72.40
70244;DHT22;57634;51.136;17.024;2022-08-21T13:01:30;19.70;72.20
70244;DHT22;57634;51.136;17.024;2022-08-21T13:04:37;19.70;72.00
70244;DHT22;57634;51.136;17.024;2022-08-21T13:07:44;19.70;71.90
70244;DHT22;57634;51.136;17.024;2022-08-21T13:10:49;19.80;71.70
70244;DHT22;57634;51.136;17.024;2022-08-21T13:14:29;19.80;71.50
70244;DHT22;57634;51.136;17.024;2022-08-21T13:17:47;19.80;71.60
70244;DHT22;57634;51.136;17.024;2022-08-21T13:20:40;19.90;71.80
70244;DHT22;57634;51.136;17.024;2022-08-21T13:23:43;19.90;71.60
70244;DHT22;57634;51.136;17.024;2022-08-21T13:26:45;19.90;71.60
70244;DHT22;57634;51.136;17.024;2022-08-21T13:29:46;19.90;71.70
70244;DHT22;57634;51.136;17.024;2022-08-21T13:32:54;20.00;71.90
70244;DHT22;57634;51.136;17.024;2022-08-21T13:36:07;20.00;71.70
70244;DHT22;57634;51.136;17.024;2022-08-21T13:39:34;20.10;71.90
70244;DHT22;57634;51.136;17.024;2022-08-21T13:42:35;20.10;71.80
70244;DHT22;57634;51.136;17.024;2022-08-21T13:45:36;20.10;71.80
70244;DHT22;57634;51.136;17.024;2022-08-21T13:48:38;20.20;71.80
70244;DHT22;57634;51.136;17.024;2022-08-21T13:51:39;20.10;71.80
70244;DHT22;57634;51.136;17.024;2022-08-21T13:54:41;20.10;71.90
70244;DHT22;57634;51.136;17.024;2022-08-21T13:57:45;20.20;71.90
70244;DHT22;57634;51.136;17.024;2022-08-21T14:00:51;20.20;71.60
70244;DHT22;57634;51.136;17.024;2022-08-21T14:03:55;20.30;71.50
70244;DHT22;57634;51.136;17.024;2022-08-21T14:07:00;20.30;71.10
70244;DHT22;57634;51.136;17.024;2022-08-21T14:10:06;20.30;70.80
70244;DHT22;57634;51.136;17.024;2022-08-21T14:16:55;20.30;70.60
70244;DHT22;57634;51.136;17.024;2022-08-21T14:19:57;20.30;70.50
70244;DHT22;57634;51.136;17.024;2022-08-21T14:22:59;20.20;70.50
70244;DHT22;57634;51.136;17.024;2022-08-21T14:26:03;20.20;70.70
70244;DHT22;57634;51.136;17.024;2022-08-21T14:29:08;20.20;70.60
70244;DHT22;57634;51.136;17.024;2022-08-21T14:32:17;20.10;70.70
70244;DHT22;57634;51.136;17.024;2022-08-21T14:35:46;20.10;70.60
70244;DHT22;57634;51.136;17.024;2022-08-21T14:38:47;20.10;70.60
70244;DHT22;57634;51.136;17.024;2022-08-21T14:41:49;20.10;70.30
70244;DHT22;57634;51.136;17.024;2022-08-21T14:44:51;20.10;70.00
70244;DHT22;57634;51.136;17.024;2022-08-21T14:47:56;20.10;70.00
70244;DHT22;57634;51.136;17.024;2022-08-21T14:50:57;20.10;69.90
70244;DHT22;57634;51.136;17.024;2022-08-21T14:53:59;20.10;70.10
70244;DHT22;57634;51.136;17.024;2022-08-21T14:57:06;20.10;70.10
70244;DHT22;57634;51.136;17.024;2022-08-21T15:00:11;20.00;70.30
70244;DHT22;57634;51.136;17.024;2022-08-21T15:03:14;20.10;70.40
70244;DHT22;57634;51.136;17.024;2022-08-21T15:06:16;20.10;70.40
70244;DHT22;57634;51.136;17.024;2022-08-21T15:09:43;20.10;70.50
70244;DHT22;57634;51.136;17.024;2022-08-21T15:12:45;20.00;70.80
70244;DHT22;57634;51.136;17.024;2022-08-21T15:15:49;20.00;71.20
70244;DHT22;57634;51.136;17.024;2022-08-21T15:18:53;20.10;71.40
70244;DHT22;57634;51.136;17.024;2022-08-21T15:21:55;20.10;71.40
70244;DHT22;57634;51.136;17.024;2022-08-21T15:24:57;20.10;71.40
70244;DHT22;57634;51.136;17.024;2022-08-21T15:27:58;20.10;71.60
70244;DHT22;57634;51.136;17.024;2022-08-21T15:31:01;20.00;71.70
70244;DHT22;57634;51.136;17.024;2022-08-21T15:34:02;20.00;71.80
70244;DHT22;57634;51.136;17.024;2022-08-21T15:37:04;20.00;71.90
70244;DHT22;57634;51.136;17.024;2022-08-21T15:40:10;20.00;71.90
70244;DHT22;57634;51.136;17.024;2022-08-21T15:46:49;20.00;72.10
70244;DHT22;57634;51.136;17.024;2022-08-21T15:49:51;20.10;72.30
70244;DHT22;57634;51.136;17.024;2022-08-21T15:52:52;20.10;72.40
70244;DHT22;57634;51.136;17.024;2022-08-21T15:55:54;20.10;72.50
70244;DHT22;57634;51.136;17.024;2022-08-21T15:59:04;20.00;72.80
70244;DHT22;57634;51.136;17.024;2022-08-21T16:02:19;20.00;73.20
70244;DHT22;57634;51.136;17.024;2022-08-21T16:05:21;19.90;73.40
70244;DHT22;57634;51.136;17.024;2022-08-21T16:08:23;19.90;73.70
70244;DHT22;57634;51.136;17.024;2022-08-21T16:11:26;19.90;74.10
70244;DHT22;57634;51.136;17.024;2022-08-21T16:14:54;19.90;74.30
70244;DHT22;57634;51.136;17.024;2022-08-21T16:17:56;20.00;74.60
70244;DHT22;57634;51.136;17.024;2022-08-21T16:20:57;20.00;74.70
70244;DHT22;57634;51.136;17.024;2022-08-21T16:23:59;20.00;74.90
70244;DHT22;57634;51.136;17.024;2022-08-21T16:27:01;20.00;75.30
70244;DHT22;57634;51.136;17.024;2022-08-21T16:30:05;20.00;75.30
70244;DHT22;57634;51.136;17.024;2022-08-21T16:34:20;20.00;75.40
70244;DHT22;57634;51.136;17.024;2022-08-21T16:37:22;19.90;75.70
70244;DHT22;57634;51.136;17.024;2022-08-21T16:40:24;19.90;75.90
70244;DHT22;57634;51.136;17.024;2022-08-21T16:43:29;19.90;76.10
70244;DHT22;57634;51.136;17.024;2022-08-21T16:46:33;19.90;76.20
70244;DHT22;57634;51.136;17.024;2022-08-21T16:49:35;19.90;76.40
70244;DHT22;57634;51.136;17.024;2022-08-21T16:52:37;19.80;76.40
70244;DHT22;57634;51.136;17.024;2022-08-21T16:55:38;19.80;76.40
70244;DHT22;57634;51.136;17.024;2022-08-21T16:58:41;19.80;76.50
70244;DHT22;57634;51.136;17.024;2022-08-21T17:01:44;19.80;76.50
70244;DHT22;57634;51.136;17.024;2022-08-21T17:04:46;19.80;76.70
70244;DHT22;57634;51.136;17.024;2022-08-21T17:08:13;19.80;76.70
70244;DHT22;57634;51.136;17.024;2022-08-21T17:14:27;19.70;76.90
70244;DHT22;57634;51.136;17.024;2022-08-21T17:17:28;19.70;77.10
70244;DHT22;57634;51.136;17.024;2022-08-21T17:20:30;19.70;77.10
70244;DHT22;57634;51.136;17.024;2022-08-21T17:23:32;19.70;77.10
70244;DHT22;57634;51.136;17.024;2022-08-21T17:26:35;19.60;77.10
70244;DHT22;57634;51.136;17.024;2022-08-21T17:29:39;19.60;77.00
70244;DHT22;57634;51.136;17.024;2022-08-21T17:32:45;19.60;76.90
70244;DHT22;57634;51.136;17.024;2022-08-21T17:35:47;19.60;76.70
70244;DHT22;57634;51.136;17.024;2022-08-21T17:39:15;19.60;76.50
70244;DHT22;57634;51.136;17.024;2022-08-21T17:42:17;19.60;76.50
70244;DHT22;57634;51.136;17.024;2022-08-21T17:45:19;19.60;76.40
70244;DHT22;57634;51.136;17.024;2022-08-21T17:48:20;19.50;76.10
70244;DHT22;57634;51.136;17.024;2022-08-21T17:51:22;19.50;76.10
70244;DHT22;57634;51.136;17.024;2022-08-21T17:54:23;19.50;75.90
70244;DHT22;57634;51.136;17.024;2022-08-21T17:57:27;19.50;75.70
70244;DHT22;57634;51.136;17.024;2022-08-21T18:00:35;19.50;75.50
70244;DHT22;57634;51.136;17.024;2022-08-21T18:03:37;19.50;75.30
70244;DHT22;57634;51.136;17.024;2022-08-21T18:06:39;19.50;75.20
70244;DHT22;57634;51.136;17.024;2022-08-21T18:09:41;19.40;75.20
70244;DHT22;57634;51.136;17.024;2022-08-21T18:13:22;19.40;75.20
70244;DHT22;57634;51.136;17.024;2022-08-21T18:16:19;19.40;75.20
70244;DHT22;57634;51.136;17.024;2022-08-21T18:19:21;19.40;75.20
70244;DHT22;57634;51.136;17.024;2022-08-21T18:22:26;19.40;75.20
70244;DHT22;57634;51.136;17.024;2022-08-21T18:25:28;19.40;75.20
70244;DHT22;57634;51.136;17.024;2022-08-21T18:28:30;19.40;75.20
70244;DHT22;57634;51.136;17.024;2022-08-21T18:31:34;19.30;75.10
70244;DHT22;57634;51.136;17.024;2022-08-21T18:34:39;19.30;75.30
70244;DHT22;57634;51.136;17.024;2022-08-21T18:37:42;19.30;75.30
70244;DHT22;57634;51.136;17.024;2022-08-21T18:40:48;19.20;75.30
70244;DHT22;57634;51.136;17.024;2022-08-21T18:44:17;19.20;75.30
70244;DHT22;57634;51.136;17.024;2022-08-21T18:47:26;19.10;75.50
70244;DHT22;57634;51.136;17.024;2022-08-21T18:50:28;19.10;75.70
70244;DHT22;57634;51.136;17.024;2022-08-21T18:53:29;19.10;75.80
70244;DHT22;57634;51.136;17.024;2022-08-21T18:56:31;19.10;75.80
70244;DHT22;57634;51.136;17.024;2022-08-21T18:59:36;19.10;75.80
70244;DHT22;57634;51.136;17.024;2022-08-21T19:02:41;19.00;75.80
70244;DHT22;57634;51.136;17.024;2022-08-21T19:05:43;19.00;75.90
70244;DHT22;57634;51.136;17.024;2022-08-21T19:08:45;19.00;75.90
70244;DHT22;57634;51.136;17.024;2022-08-21T19:11:46;19.00;75.90
70244;DHT22;57634;51.136;17.024;2022-08-21T19:15:19;18.90;76.00
70244;DHT22;57634;51.136;17.024;2022-08-21T19:18:24;18.90;76.40
70244;DHT22;57634;51.136;17.024;2022-08-21T19:21:27;18.90;76.60
70244;DHT22;57634;51.136;17.024;2022-08-21T19:24:29;18.90;76.80
70244;DHT22;57634;51.136;17.024;2022-08-21T19:27:30;18.80;76.80
70244;DHT22;57634;51.136;17.024;2022-08-21T19:30:32;18.80;77.10
70244;DHT22;57634;51.136;17.024;2022-08-21T19:33:36;18.70;77.30
70244;DHT22;57634;51.136;17.024;2022-08-21T19:36:38;18.70;77.60
70244;DHT22;57634;51.136;17.024;2022-08-21T19:39:39;18.60;77.80
70244;DHT22;57634;51.136;17.024;2022-08-21T19:42:41;18.60;78.00
70244;DHT22;57634;51.136;17.024;2022-08-21T19:45:43;18.50;78.10
70244;DHT22;57634;51.136;17.024;2022-08-21T19:48:46;18.50;78.30
70244;DHT22;57634;51.136;17.024;2022-08-21T19:52:14;18.40;78.40
70244;DHT22;57634;51.136;17.024;2022-08-21T19:55:16;18.40;78.80
70244;DHT22;57634;51.136;17.024;2022-08-21T19:58:31;18.30;79.00
70244;DHT22;57634;51.136;17.024;2022-08-21T20:01:34;18.30;79.20
70244;DHT22;57634;51.136;17.024;2022-08-21T20:04:36;18.20;79.50
70244;DHT22;57634;51.136;17.024;2022-08-21T20:07:37;18.30;79.70
70244;DHT22;57634;51.136;17.024;2022-08-21T20:10:40;18.20;79.80
70244;DHT22;57634;51.136;17.024;2022-08-21T20:13:42;18.20;79.70
70244;DHT22;57634;51.136;17.024;2022-08-21T20:16:45;18.20;79.80
70244;DHT22;57634;51.136;17.024;2022-08-21T20:19:47;18.20;79.90
70244;DHT22;57634;51.136;17.024;2022-08-21T20:23:14;18.30;79.90
70244;DHT22;57634;51.136;17.024;2022-08-21T20:26:19;18.20;80.10
70244;DHT22;57634;51.136;17.024;2022-08-21T20:29:28;18.20;80.20
70244;DHT22;57634;51.136;17.024;2022-08-21T20:32:27;18.20;80.30
70244;DHT22;57634;51.136;17.024;2022-08-21T20:35:28;18.20;80.50
70244;DHT22;57634;51.136;17.024;2022-08-21T20:38:30;18.30;80.60
70244;DHT22;57634;51.136;17.024;2022-08-21T20:41:31;18.30;80.60
70244;DHT22;57634;51.136;17.024;2022-08-21T20:44:34;18.30;80.60
70244;DHT22;57634;51.136;17.024;2022-08-21T20:47:36;18.30;80.60
70244;DHT22;57634;51.136;17.024;2022-08-21T20:50:43;18.30;80.60
70244;DHT22;57634;51.136;17.024;2022-08-21T20:53:56;18.30;80.70
70244;DHT22;57634;51.136;17.024;2022-08-21T21:00:44;18.20;81.10
70244;DHT22;57634;51.136;17.024;2022-08-21T21:03:54;18.20;81.30
70244;DHT22;57634;51.136;17.024;2022-08-21T21:06:58;18.30;81.50